• Join FlightAware (Why Join?)
  • Login
  • US Flag 
08:39AM EDT


 

Airport Tracker/Info


-or-


 

Live Flight TrackerFlight Track Log ✈ NKS200 ✈ 14-Oct-2013 ✈ KIAH - KORD

Flight Track Log - Related Links

Times and Time Zones

All times are in EDT time to prevent confusion due to time zone crossing. See the NKS200 flight status page for this flight to view local times or setup timezone preferences in your user account.

Time Position Orientation Groundspeed Altitude Reporting Facility
EDT Latitude Longitude Course Direction KTS MPH feet Rate Location/Type
07:36AM 29.9711 -95.3477 157° South 165 190  Level FlightAware ADS-B
07:36AM 29.9600 -95.3412 153° Southeast 165 190 500 2,280 Climbing FlightAware ADS-B
07:36AM 29.9563 -95.3389 152° Southeast 164 189 800 3,000 Climbing FlightAware ADS-B
07:36AM 29.9537 -95.3364 140° Southeast 162 186 1,000 2,700 Climbing FlightAware ADS-B
07:36AM 29.9513 -95.3326 126° Southeast 157 181 1,300 2,760 Climbing FlightAware ADS-B
07:36AM 29.9497 -95.3266 107° East 155 178 1,600 2,100 Climbing FlightAware ADS-B
07:36AM 29.9500 -95.3206 87° East 162 186 1,800 1,200 Climbing FlightAware ADS-B
07:37AM 29.9621 -95.3040 50° Northeast 196 226 2,200 1,020 Climbing FlightAware ADS-B
07:37AM 29.9785 -95.2966 21° North 226 260 2,500 1,080 Climbing FlightAware ADS-B
07:37AM 29.9953 -95.2888 22° Northeast 259 298 2,800 1,740 Climbing FlightAware ADS-B
07:37AM 30.0130 -95.2804 22° Northeast 274 315 3,400 2,580 Climbing FlightAware ADS-B
07:38AM 30.0322 -95.2718 21° North 283 326 4,200 3,240 Climbing FlightAware ADS-B
07:38AM 30.0516 -95.2634 21° North 287 330 5,100 3,360 Climbing FlightAware ADS-B
07:38AM 30.0706 -95.2551 21° North 290 334 5,900 3,360 Climbing FlightAware ADS-B
07:38AM 30.0894 -95.2466 21° North 292 336 6,800 3,300 Climbing FlightAware ADS-B
07:39AM 30.1069 -95.2382 23° Northeast 295 339 7,500 3,060 Climbing FlightAware ADS-B
07:39AM 30.1262 -95.2289 23° Northeast 298 343 8,300 3,360 Climbing FlightAware ADS-B
07:39AM 30.1453 -95.2199 22° Northeast 297 342 9,200 3,300 Climbing FlightAware ADS-B
07:39AM 30.1517 -95.2173 19° North 296 341 9,400 2,820 Climbing FlightAware ADS-B
07:40AM 30.1676 -95.2119 16° North 298 343 10,000 1,920 Climbing FlightAware ADS-B
07:40AM 30.2096 -95.1981 16° North 330 380 10,800 1,260 Climbing FlightAware ADS-B
07:41AM 30.2579 -95.1821 16° North 363 418 11,300 1,560 Climbing FlightAware ADS-B
07:41AM 30.3076 -95.1658 16° North 376 433 12,400 2,160 Climbing FlightAware ADS-B
07:42AM 30.3596 -95.1488 16° North 386 444 13,500 2,400 Climbing FlightAware ADS-B
07:42AM 30.4113 -95.1320 16° North 386 444 14,800 2,280 Climbing FlightAware ADS-B
07:43AM 30.4660 -95.1140 16° North 390 449 15,900 1,920 Climbing FlightAware ADS-B
07:43AM 30.5221 -95.0957 16° North 395 455 16,900 1,860 Climbing FlightAware ADS-B
07:44AM 30.5742 -95.0786 16° North 402 463 17,800 2,040 Climbing FlightAware ADS-B
07:44AM 30.5902 -95.0722 19° North 402 463 18,200 2,220 Climbing FlightAware ADS-B
07:44AM 30.6015 -95.0667 23° Northeast 403 464 18,400 1,680 Climbing FlightAware ADS-B
07:44AM 30.6537 -95.0345 28° Northeast 412 474 19,300 1,620 Climbing FlightAware ADS-B
07:45AM 30.7049 -95.0025 28° Northeast 415 478 20,100 1,620 Climbing FlightAware ADS-B
07:45AM 30.7575 -94.9697 28° Northeast 420 483 21,000 1,620 Climbing FlightAware ADS-B
07:46AM 30.8112 -94.9363 28° Northeast 423 487 21,800 1,320 Climbing FlightAware ADS-B
07:46AM 30.8636 -94.9037 28° Northeast 430 495 22,400 1,140 Climbing FlightAware ADS-B
07:47AM 30.9169 -94.8704 28° Northeast 437 503 23,000 1,260 Climbing FlightAware ADS-B
07:47AM 30.9713 -94.8365 28° Northeast 441 507 23,700 1,260 Climbing FlightAware ADS-B
07:48AM 31.0258 -94.8024 28° Northeast 445 512 24,300 1,260 Climbing FlightAware ADS-B
07:48AM 31.0804 -94.7682 28° Northeast 447 514 25,000 1,440 Climbing FlightAware ADS-B
07:49AM 31.1360 -94.7332 28° Northeast 447 514 25,800 1,260 Climbing FlightAware ADS-B
07:49AM 31.1915 -94.6979 29° Northeast 453 521 26,300 900 Climbing FlightAware ADS-B
07:50AM 31.2467 -94.6597 31° Northeast 461 531 26,700 780 Climbing FlightAware ADS-B
07:50AM 31.3028 -94.6201 31° Northeast 468 539 27,100 960 Climbing FlightAware ADS-B
07:51AM 31.3590 -94.5809 31° Northeast 468 539 27,700 1,200 Climbing FlightAware ADS-B
07:51AM 31.4158 -94.5415 31° Northeast 470 541 28,300 1,080 Climbing FlightAware ADS-B
07:52AM 31.4728 -94.5021 31° Northeast 476 548 28,800 720 Climbing FlightAware ADS-B
07:53AM 31.5355 -94.4585 31° Northeast 484 557 29,100 660 Climbing FlightAware ADS-B
07:53AM 31.5923 -94.4190 31° Northeast 490 564 29,500 780 Climbing FlightAware ADS-B
07:53AM 31.6198 -94.4021 28° Northeast 487 560 29,700 780 Climbing FlightAware ADS-B
07:54AM 31.6845 -94.3727 21° North 485 558 30,100 900 Climbing FlightAware ADS-B
07:54AM 31.7513 -94.3430 21° North 486 559 30,700 960 Climbing FlightAware ADS-B
07:55AM 31.8148 -94.3147 21° North 488 562 31,100 960 Climbing FlightAware ADS-B
07:55AM 31.8808 -94.2852 21° North 487 560 31,700 1,020 Climbing FlightAware ADS-B
07:56AM 31.9453 -94.2563 21° North 487 560 32,200 1,080 Climbing FlightAware ADS-B
07:56AM 32.0094 -94.2278 21° North 483 556 32,800 1,140 Climbing FlightAware ADS-B
07:57AM 32.0730 -94.1994 21° North 480 552 33,400 1,260 Climbing FlightAware ADS-B
07:57AM 32.1355 -94.1713 21° North 475 547 34,100 1,140 Climbing FlightAware ADS-B
07:58AM 32.2010 -94.1420 21° North 476 548 34,600 1,020 Climbing FlightAware ADS-B
07:58AM 32.2626 -94.1143 21° North 471 542 35,200 1,080 Climbing FlightAware ADS-B
07:59AM 32.3251 -94.0862 21° North 469 540 35,700 960 Climbing FlightAware ADS-B
07:59AM 32.3870 -94.0580 21° North 465 535 36,300 960 Climbing FlightAware
08:00AM 32.4459 -94.0317 21° North 466 536 36,700 720 Climbing FlightAware ADS-B
08:00AM 32.5072 -94.0040 21° North 461 531 37,000 240 Climbing FlightAware ADS-B
08:01AM 32.5490 -93.9850 21° North 462 532 37,000  Level FlightAware
08:02AM 32.6551 -93.9372 21° North 458 527 37,000  Level FlightAware ADS-B
08:02AM 32.7151 -93.9100 21° North 458 527 37,000  Level FlightAware ADS-B
08:03AM 32.7752 -93.8826 21° North 457 526 37,000  Level FlightAware ADS-B
08:03AM 32.8686 -93.8401 21° North 456 525 37,000  Level FlightAware ADS-B
08:04AM 32.9278 -93.8131 21° North 456 525 37,000  Level FlightAware ADS-B
08:04AM 32.9886 -93.7853 21° North 456 525 37,000  Level FlightAware ADS-B
08:05AM 33.0481 -93.7581 21° North 458 527 37,000  Level FlightAware ADS-B
08:05AM 33.1092 -93.7301 21° North 458 527 37,000  Level FlightAware ADS-B
08:06AM 33.1880 -93.6940 21° North 460 529 37,000  Level FlightAware
08:06AM 33.2294 -93.6750 21° North 459 528 37,000  Level FlightAware ADS-B
08:07AM 33.2926 -93.6459 21° North 461 531 37,000  Level FlightAware ADS-B
08:08AM 33.3901 -93.6009 21° North 461 531 37,000  Level FlightAware ADS-B
08:08AM 33.4600 -93.5690 21° North 461 531 37,000  Level FlightAware
08:09AM 33.5403 -93.5315 21° North 461 531 37,000  Level FlightAware ADS-B
08:10AM 33.6006 -93.5036 21° North 460 529 37,000  Level FlightAware ADS-B
08:10AM 33.6665 -93.4729 21° North 460 529 37,000  Level FlightAware ADS-B
08:11AM 33.7520 -93.4330 21° North 460 529 37,000  Level FlightAware
08:12AM 33.8380 -93.3930 21° North 460 529 37,000  Level FlightAware
08:12AM 33.9270 -93.3520 21° North 460 529 37,000  Level FlightAware
08:13AM 34.0050 -93.3150 21° North 461 531 37,000  Level FlightAware
08:14AM 34.0750 -93.2820 21° North 461 531 37,000  Level FlightAware
08:14AM 34.1700 -93.2370 21° North 462 532 37,000  Level FlightAware
08:15AM 34.2690 -93.1910 21° North 462 532 37,000  Level FlightAware
08:16AM 34.3570 -93.1490 22° Northeast 463 533 37,000  Level FlightAware
08:16AM 34.4200 -93.1190 21° North 462 532 37,000  Level FlightAware
08:17AM 34.4910 -93.0860 21° North 463 533 37,000  Level FlightAware
08:18AM 34.5560 -93.0550 21° North 463 533 37,000  Level FlightAware
08:18AM 34.6340 -93.0180 21° North 462 532 37,000  Level FlightAware
08:19AM 34.6980 -92.9870 22° Northeast 463 533 37,000  Level FlightAware
08:19AM 34.7700 -92.9530 21° North 463 533 37,000  Level FlightAware
08:20AM 34.8540 -92.9120 22° Northeast 464 534 37,000  Level FlightAware
08:21AM 34.9240 -92.8790 21° North 465 535 37,000  Level FlightAware
08:21AM 34.9960 -92.8440 22° Northeast 465 535 37,000  Level FlightAware
08:22AM 35.0540 -92.8170 21° North 465 535 37,000  Level FlightAware
08:22AM 35.1370 -92.7760 22° Northeast 466 536 37,000  Level FlightAware
08:23AM 35.2020 -92.7450 21° North 466 536 37,000  Level FlightAware
08:24AM 35.2710 -92.7120 21° North 466 536 37,000  Level FlightAware
08:24AM 35.3480 -92.6740 22° Northeast 468 539 37,000  Level FlightAware
08:25AM 35.4090 -92.6450 21° North 468 539 37,000  Level FlightAware
08:25AM 35.4900 -92.6050 22° Northeast 467 537 37,000  Level FlightAware
08:26AM 35.5530 -92.5740 22° Northeast 467 537 37,000  Level FlightAware
08:26AM 35.6270 -92.5380 22° Northeast 467 537 37,000  Level FlightAware
08:27AM 35.6980 -92.5030 22° Northeast 467 537 37,000  Level FlightAware
08:28AM 35.7660 -92.4700 21° North 467 537 37,000  Level FlightAware
08:28AM 35.8370 -92.4350 22° Northeast 466 536 37,000  Level FlightAware
08:29AM 35.9110 -92.3990 22° Northeast 466 536 37,000  Level FlightAware
08:29AM 35.9800 -92.3650 22° Northeast 466 536 37,000  Level FlightAware
08:30AM 36.0440 -92.3330 22° Northeast 467 537 37,000  Level FlightAware
08:31AM 36.1150 -92.2980 22° Northeast 467 537 37,000  Level FlightAware
08:31AM 36.1920 -92.2600 22° Northeast 467 537 37,000  Level FlightAware
08:32AM 36.2570 -92.2280 22° Northeast 467 537 37,000  Level FlightAware
08:32AM 36.3130 -92.1990 23° Northeast 467 537 37,000 60 Level FlightAware
08:33AM 36.4010 -92.1560 21° North 461 531 37,100  Climbing FlightAware
08:33AM 36.4680 -92.1220 22° Northeast 459 528 37,000 -120 Descending FlightAware
08:34AM 36.5420 -92.0850 22° Northeast 457 526 37,000  Level FlightAware
08:35AM 36.6000 -92.0560 22° Northeast 456 525 37,000  Level FlightAware
08:35AM 36.6660 -92.0230 22° Northeast 455 524 37,000  Level FlightAware
08:36AM 36.7450 -91.9830 22° Northeast 454 522 37,000  Level FlightAware
08:36AM 36.8070 -91.9510 22° Northeast 454 522 37,000  Level FlightAware
08:37AM 36.8780 -91.9150 22° Northeast 455 524 37,000  Level FlightAware
08:38AM 36.9490 -91.8800 22° Northeast 456 525 37,000  Level FlightAware
08:38AM 37.0190 -91.8440 22° Northeast 457 526 37,000  Level FlightAware
08:39AM 37.0820 -91.8120 22° Northeast 457 526 37,000  Level FlightAware
08:39AM 37.1510 -91.7770 22° Northeast 456 525 37,000  Level FlightAware
08:40AM 37.2220 -91.7400 23° Northeast 454 522 37,000  Level FlightAware
08:41AM 37.2920 -91.7050 22° Northeast 453 521 37,000  Level FlightAware
08:41AM 37.3510 -91.6740 23° Northeast 452 520 37,000  Level FlightAware
08:42AM 37.4230 -91.6380 22° Northeast 451 519 37,000  Level FlightAware
08:42AM 37.4890 -91.6040 22° Northeast 452 520 37,000  Level FlightAware
08:43AM 37.5480 -91.5730 23° Northeast 452 520 37,000  Level FlightAware
08:43AM 37.6240 -91.5340 22° Northeast 453 521 37,000  Level FlightAware
08:44AM 37.6960 -91.4960 23° Northeast 457 526 37,000  Level FlightAware
08:45AM 37.7580 -91.4640 22° Northeast 459 528 37,000  Level FlightAware
08:45AM 37.8320 -91.4260 22° Northeast 461 531 37,000  Level FlightAware
08:46AM 37.8960 -91.3920 23° Northeast 464 534 37,000  Level FlightAware
08:46AM 37.9730 -91.3520 22° Northeast 466 536 37,000  Level FlightAware
08:47AM 38.0380 -91.3180 22° Northeast 468 539 37,000  Level FlightAware
08:47AM 38.1110 -91.2800 22° Northeast 468 539 37,000  Level FlightAware
08:48AM 38.1810 -91.2430 23° Northeast 469 540 37,000  Level FlightAware
08:49AM 38.2500 -91.2070 22° Northeast 469 540 37,000  Level FlightAware
08:49AM 38.3160 -91.1720 23° Northeast 468 539 37,000  Level FlightAware
08:50AM 38.3890 -91.1330 23° Northeast 468 539 37,000  Level FlightAware
08:50AM 38.4600 -91.0960 22° Northeast 468 539 37,000  Level FlightAware
08:51AM 38.5300 -91.0580 23° Northeast 466 536 37,000  Level FlightAware
08:52AM 38.6030 -91.0200 22° Northeast 467 537 37,000  Level FlightAware
08:52AM 38.6670 -90.9860 23° Northeast 463 533 37,000 -360 Level FlightAware
08:53AM 38.7170 -90.9710 13° North 435 501 36,700 -1,740 Descending FlightAware
08:53AM 38.7830 -90.9660 North 433 498 35,400 -1,560 Descending FlightAware
08:54AM 38.8580 -90.9600 North 447 514 34,900 -360 Descending FlightAware
08:54AM 38.9210 -90.9540 North 447 514 35,000 60 Climbing FlightAware
08:55AM 38.9990 -90.9470 North 441 507 35,000  Level FlightAware
08:55AM 39.0710 -90.9410 North 440 506 35,000  Level FlightAware
08:56AM 39.1400 -90.9230 11° North 469 540 35,000  Level FlightAware
08:57AM 39.2060 -90.8800 27° Northeast 481 554 35,000  Level FlightAware
08:57AM 39.2790 -90.8330 26° Northeast 479 551 35,000  Level FlightAware
08:58AM 39.3490 -90.7880 26° Northeast 479 551 35,000  Level FlightAware
08:58AM 39.4070 -90.7510 26° Northeast 478 550 35,000  Level FlightAware
08:59AM 39.4880 -90.6980 27° Northeast 476 548 35,000  Level FlightAware
08:59AM 39.5460 -90.6600 27° Northeast 474 545 35,000  Level FlightAware
09:00AM 39.6240 -90.6100 26° Northeast 475 547 35,000  Level FlightAware
09:01AM 39.6920 -90.5660 26° Northeast 474 545 35,000 -960 Level FlightAware
09:01AM 39.7620 -90.5200 27° Northeast 471 542 33,900 -1,680 Descending FlightAware
09:02AM 39.8320 -90.4740 27° Northeast 468 539 33,000 -780 Descending FlightAware
09:03AM 39.9100 -90.4240 26° Northeast 473 544 33,000  Level FlightAware
09:03AM 39.9790 -90.3780 27° Northeast 470 541 33,000  Level FlightAware
09:04AM 40.0530 -90.3290 27° Northeast 470 541 33,000  Level FlightAware
09:04AM 40.1290 -90.2790 27° Northeast 470 541 33,000  Level FlightAware
09:05AM 40.1980 -90.2340 26° Northeast 470 541 33,000  Level FlightAware
09:06AM 40.2620 -90.1910 27° Northeast 470 541 33,000  Level FlightAware
09:06AM 40.3270 -90.1480 27° Northeast 469 540 33,000  Level FlightAware
09:07AM 40.4000 -90.1000 27° Northeast 470 541 33,000  Level FlightAware
09:07AM 40.4730 -90.0510 27° Northeast 470 541 33,000  Level FlightAware
09:08AM 40.5400 -90.0060 27° Northeast 470 541 33,000  Level FlightAware
09:08AM 40.6020 -89.9650 27° Northeast 470 541 33,000  Level FlightAware
09:09AM 40.6730 -89.9170 27° Northeast 470 541 33,000  Level FlightAware
09:10AM 40.7450 -89.8690 27° Northeast 469 540 33,000 -120 Level FlightAware
09:10AM 40.8090 -89.8260 27° Northeast 470 541 32,900 -1,680 Descending FlightAware
09:11AM 40.8520 -89.7970 27° Northeast 485 558 31,500 -3,900 Descending FlightAware
09:12AM 40.9620 -89.7220 27° Northeast 500 575 27,900 -3,600 Descending FlightAware
09:12AM 41.0370 -89.6710 27° Northeast 493 567 26,000 -2,820 Descending FlightAware
09:13AM 41.1020 -89.6270 27° Northeast 483 556 24,600 -1,980 Descending FlightAware
09:13AM 41.1500 -89.5830 35° Northeast 469 540 24,000 -780 Descending FlightAware
09:13AM 41.1790 -89.5370 50° Northeast 456 525 24,000 -1,860 Level FlightAware
09:14AM 41.2180 -89.4450 61° Northeast 459 528 22,300 -2,520 Descending FlightAware
09:15AM 41.2540 -89.3550 62° Northeast 446 513 21,000 -2,460 Descending FlightAware
09:15AM 41.2830 -89.2830 62° Northeast 443 510 19,600 -2,520 Descending FlightAware
09:16AM 41.3180 -89.1950 62° Northeast 432 497 18,200 -2,340 Descending FlightAware
09:16AM 41.3480 -89.1220 61° Northeast 428 493 16,900 -2,280 Descending FlightAware
09:17AM 41.3810 -89.0370 63° Northeast 412 474 15,600 -2,100 Descending FlightAware
09:18AM 41.4120 -88.9600 62° Northeast 400 460 14,400 -2,100 Descending FlightAware
09:18AM 41.4450 -88.8770 62° Northeast 386 444 13,100 -2,040 Descending FlightAware
09:19AM 41.4740 -88.8050 62° Northeast 373 429 12,000 -1,800 Descending FlightAware
09:19AM 41.5010 -88.7370 62° Northeast 361 415 11,000 -1,200 Descending FlightAware
09:20AM 41.5290 -88.6660 62° Northeast 329 379 10,600 -360 Descending FlightAware
09:21AM 41.5500 -88.6120 63° Northeast 303 349 10,600 -240 Level FlightAware
09:21AM 41.5700 -88.5610 62° Northeast 298 343 10,400 -780 Descending FlightAware
09:21AM 41.5850 -88.5240 62° Northeast 293 337 9,900 -1,320 Descending FlightAware
09:22AM 41.6000 -88.4880 61° Northeast 290 334 9,400 -1,500 Descending FlightAware
09:22AM 41.6130 -88.4580 60° Northeast 288 331 8,900 -1,500 Descending FlightAware
09:23AM 41.6350 -88.4230 50° Northeast 285 328 8,300 -1,440 Descending FlightAware
09:23AM 41.6510 -88.3960 52° Northeast 284 327 7,800 -1,320 Descending FlightAware
09:23AM 41.6600 -88.3800 53° Northeast 281 323 7,600 -420 Descending FlightAware
09:23AM 41.6750 -88.3530 53° Northeast 283 326 7,600 -180 Level FlightAware
09:24AM 41.6890 -88.3310 50° Northeast 284 327 7,500 -300 Descending FlightAware
09:24AM 41.6950 -88.3260 32° Northeast 284 327 7,500  Level FlightAware
09:24AM 41.7040 -88.3210 23° Northeast 282 325 7,500 -780 Level FlightAware
09:24AM 41.7130 -88.3180 14° North 279 321 7,300 -840 Descending FlightAware
09:24AM 41.7490 -88.3190 359° North 262 302 7,000 -600 Descending FlightAware
09:25AM 41.7730 -88.3210 356° North 251 289 6,800 -540 Descending FlightAware
09:25AM 41.7900 -88.3220 357° North 242 278 6,700 -360 Descending FlightAware
09:25AM 41.8150 -88.3230 358° North 234 269 6,600 -180 Descending FlightAware
09:26AM 41.8380 -88.3250 356° North 213 245 6,600  Level FlightAware
09:26AM 41.8520 -88.3250 360° North 198 228 6,600 -420 Level FlightAware
09:26AM 41.8690 -88.3260 357° North 191 220 6,400 -840 Descending FlightAware
09:27AM 41.8840 -88.3270 357° North 191 220 6,100 -1,020 Descending FlightAware
09:27AM 41.9050 -88.3290 356° North 189 217 5,700 -1,140 Descending FlightAware
09:27AM 41.9240 -88.3310 356° North 187 215 5,300 -1,080 Descending FlightAware
09:28AM 41.9370 -88.3320 357° North 188 216 5,000 -1,260 Descending FlightAware
09:28AM 41.9540 -88.3200 28° Northeast 180 207 4,500 -1,380 Descending FlightAware
09:28AM 41.9570 -88.3120 63° Northeast 177 204 4,300 -1,200 Descending FlightAware
09:28AM 41.9640 -88.2950 61° Northeast 175 201 4,000 -660 Descending FlightAware
09:29AM 41.9660 -88.2870 71° East 166 191 4,000 -300 Level FlightAware
09:29AM 41.9670 -88.2760 83° East 161 185 3,900 -960 Descending FlightAware
09:29AM 41.9670 -88.2580 90° East 160 184 3,600 -480 Descending FlightAware
09:29AM 41.9680 -88.2390 86° East 164 189 3,600  Level FlightAware
09:30AM 41.9680 -88.2140 90° East 163 188 3,600  Level FlightAware
09:30AM 41.9680 -88.1940 90° East 161 185 3,600  Level FlightAware
09:31AM 41.9680 -88.1690 90° East 161 185 3,600 -300 Level FlightAware
09:31AM 41.9680 -88.1450 90° East 166 191 3,400 -780 Descending FlightAware
09:31AM 41.9680 -88.1230 90° East 161 185 3,100 -960 Descending FlightAware
09:32AM 41.9680 -88.1030 90° East 158 182 2,700 -840 Descending FlightAware
09:32AM 41.9690 -88.0830 86° East 149 171 2,500 -780 Descending FlightAware
09:32AM 41.9690 -88.0630 90° East 137 158 2,200 -840 Descending FlightAware
09:33AM 41.9690 -88.0430 90° East 131 151 1,900 -720 Descending FlightAware
09:33AM 41.9690 -88.0160 90° East 123 142 1,500 -660 Descending FlightAware
09:34AM 41.9690 -88.0020 90° East 125 144 1,300 -540 Descending FlightAware
09:34AM 41.9690 -87.9920 90° East 124 143 1,200 -600 Descending FlightAware
09:34AM 41.9690 -87.9710 90° East 125 144 900 -780 Descending FlightAware
09:35AM 41.9690 -87.9540 90° East 125 144 600 -720 Descending FlightAware
09:35AM 41.9690 -87.9300 90° East 126 145 300 -660 Descending FlightAware
09:36AM 41.9690 -87.9170 90° East 86 99 -900 Descending FlightAware